Flight Track Log - Related Links

Times and Time Zones

All times are in EDT time to prevent confusion due to time zone crossing. See the CHQ5077 flight status page for this flight to view local times or setup timezone preferences in your user account.

Time Position Orientation Groundspeed Altitude Reporting Facility
EDT Latitude Longitude Course Direction KTS MPH feet Rate Location/Type
Thu 07:49:05 AM 42.0000 -87.9833 270° West 206 237 2,800  Level Chicago TRACON
Thu 07:51:00 AM 41.9667 -88.3012 270° West  Level FlightAware
Thu 07:51:00 AM 41.9850 -88.1506 263° West 248 285 8,600  Level Chicago Center
Thu 07:52:00 AM 41.9667 -88.4015 270° West  Level FlightAware
Thu 07:52:02 AM 41.9803 -88.2389 266° West 242 278 11,800  Level Chicago Center
Thu 07:53:00 AM 41.9667 -88.5018 270° West  Level FlightAware
Thu 07:53:04 AM 41.9783 -88.3333 268° West 253 291 13,700  Level Chicago Center
Thu 07:54:00 AM 41.9667 -88.6130 270° West  Level FlightAware
Thu 07:54:05 AM 41.9767 -88.4678 269° West 298 343 15,500  Level Chicago Center
Thu 07:55:07 AM 41.9747 -88.5872 269° West 318 366 16,100 290 Climbing Chicago Center
Thu 07:56:09 AM 41.9725 -88.7017 269° West 313 360 16,100  Level Chicago Center
Thu 07:57:10 AM 41.9708 -88.8075 269° West 291 335 16,100  Level Chicago Center
Thu 07:58:12 AM 41.9692 -88.9117 269° West 284 327 16,100  Level Chicago Center
Thu 07:59:14 AM 41.9672 -89.0372 269° West 282 325 16,100  Level Chicago Center
Thu 08:00:16 AM 41.9647 -89.1417 268° West 282 325 16,100  Level Chicago Center
Thu 08:01:17 AM 41.9631 -89.2428 269° West 277 319 16,100  Level Chicago Center
Thu 08:02:19 AM 41.9608 -89.3464 268° West 277 319 16,100  Level Chicago Center
Thu 08:03:21 AM 41.9586 -89.4489 268° West 278 320 16,100  Level Chicago Center
Thu 08:04:23 AM 41.9558 -89.5536 268° West 280 322 16,100  Level Chicago Center
Thu 08:05:24 AM 41.9525 -89.6778 268° West 281 323 16,100  Level Chicago Center
Thu 08:06:26 AM 41.9494 -89.7814 268° West 279 321 16,100  Level Chicago Center
Thu 08:07:28 AM 41.9475 -89.8842 269° West 279 321 16,100  Level Chicago Center
Thu 08:08:30 AM 41.9456 -89.9900 269° West 286 329 16,100  Level Chicago Center
Thu 08:09:31 AM 41.9425 -90.0922 268° West 280 322 16,100  Level Chicago Center
Thu 08:10:33 AM 41.9389 -90.1958 267° West 279 321 16,100  Level Chicago Center
Thu 08:11:35 AM 41.9358 -90.3194 268° West 278 320 16,100 -290 Level Chicago Center
Thu 08:12:37 AM 41.9322 -90.4206 267° West 278 320 15,500 -774 Descending Chicago Center
Thu 08:13:39 AM 41.9308 -90.5247 269° West 280 322 14,500 -968 Descending Chicago Center
Thu 08:14:41 AM 41.9267 -90.6314 267° West 287 330 13,500 -976 Descending Chicago Center
Thu 08:15:42 AM 41.9214 -90.7414 266° West 294 338 12,500 -976 Descending Chicago Center
Thu 08:16:44 AM 41.9183 -90.8481 268° West 289 333 11,500 -726 Descending Chicago Center
Thu 08:17:46 AM 41.9131 -90.9739 267° West 286 329 11,000 -726 Descending Chicago Center
Thu 08:18:48 AM 41.9033 -91.0656 262° West 262 302 10,000 -1,016 Descending Chicago Center
Thu 08:19:50 AM 41.8908 -91.1625 260° West 262 302 8,900 -1,073 Descending Chicago Center
Thu 08:20:51 AM 41.8797 -91.2642 262° West 270 311 7,800 -1,073 Descending Chicago Center
Thu 08:21:53 AM 41.8786 -91.3617 269° West 267 307 6,700 -1,500 Descending Chicago Center
Thu 08:22:55 AM 41.8817 -91.4719 272° West 252 290 4,700 -1,935 Descending Chicago Center

Login

Don't have an account? Register now (free) for customized features, flight alerts, and more!